createdAt,value
2023-04-18T00:00:18.345Z,5.20
2023-04-18T00:03:05.983Z,5.15
2023-04-18T00:05:33.573Z,5.09
2023-04-18T00:08:00.995Z,5.01
2023-04-18T00:10:28.530Z,4.99
2023-04-18T00:12:57.789Z,4.99
2023-04-18T00:15:25.519Z,5.06
2023-04-18T00:17:55.939Z,5.15
2023-04-18T00:20:26.256Z,5.26
2023-04-18T00:22:54.604Z,5.31
2023-04-18T00:25:22.109Z,5.36
2023-04-18T00:27:49.826Z,5.38
2023-04-18T00:30:18.199Z,5.34
2023-04-18T00:32:45.863Z,5.29
2023-04-18T00:35:13.541Z,5.31
2023-04-18T00:37:41.432Z,5.32
2023-04-18T00:40:09.833Z,5.25
2023-04-18T00:42:37.359Z,5.11
2023-04-18T00:45:05.792Z,4.94
2023-04-18T00:47:33.459Z,4.85
2023-04-18T00:50:01.678Z,4.75
2023-04-18T00:52:29.576Z,4.65
2023-04-18T00:54:57.057Z,4.48
2023-04-18T00:57:24.752Z,4.40
2023-04-18T00:59:52.717Z,4.31
2023-04-18T01:02:20.418Z,4.26
2023-04-18T01:04:47.996Z,4.23
2023-04-18T01:07:15.714Z,4.26
2023-04-18T01:09:44.047Z,4.25
2023-04-18T01:12:11.599Z,4.29
2023-04-18T01:14:42.686Z,4.28
2023-04-18T01:17:10.289Z,4.31
2023-04-18T01:19:37.692Z,4.39
2023-04-18T01:22:08.188Z,4.33
2023-04-18T01:24:36.058Z,4.16
2023-04-18T01:27:04.079Z,4.08
2023-04-18T01:29:34.358Z,3.99
2023-04-18T01:32:02.213Z,3.96
2023-04-18T01:34:29.738Z,3.95
2023-04-18T01:36:57.586Z,3.97
2023-04-18T01:39:25.130Z,3.93
2023-04-18T01:41:53.075Z,3.85
2023-04-18T01:44:20.584Z,3.82
2023-04-18T01:46:48.087Z,3.80
2023-04-18T01:49:16.057Z,3.83
2023-04-18T01:51:43.394Z,3.82
2023-04-18T01:54:10.768Z,3.82
2023-04-18T01:56:38.549Z,3.83
2023-04-18T01:59:06.400Z,3.88
2023-04-18T02:01:33.850Z,3.92
2023-04-18T02:04:01.629Z,3.98
2023-04-18T02:06:29.083Z,4.03
2023-04-18T02:08:56.850Z,4.09
2023-04-18T02:11:25.741Z,4.15
2023-04-18T02:13:53.396Z,4.20
2023-04-18T02:16:21.167Z,4.26
2023-04-18T02:18:49.439Z,4.29
2023-04-18T02:21:16.886Z,4.31
2023-04-18T02:23:44.330Z,4.33
2023-04-18T02:26:11.735Z,4.33
2023-04-18T02:28:39.390Z,4.33
2023-04-18T02:31:07.394Z,4.32
2023-04-18T02:33:35.160Z,4.32
2023-04-18T02:36:03.082Z,4.31
2023-04-18T02:38:31.258Z,4.28
2023-04-18T02:40:58.733Z,4.27
2023-04-18T02:43:27.549Z,4.27
2023-04-18T02:45:55.506Z,4.32
2023-04-18T02:48:24.085Z,4.39
2023-04-18T02:50:51.863Z,4.39
2023-04-18T02:53:23.457Z,4.40
2023-04-18T02:55:53.086Z,4.41
2023-04-18T02:58:22.280Z,4.41
2023-04-18T03:01:19.608Z,4.50
2023-04-18T03:03:54.156Z,4.59
2023-04-18T03:06:48.462Z,4.69
2023-04-18T03:09:16.537Z,4.76
2023-04-18T03:11:46.364Z,4.87
2023-04-18T03:14:14.833Z,4.79
2023-04-18T03:16:51.753Z,4.69
2023-04-18T03:19:22.525Z,4.63
2023-04-18T03:21:50.853Z,4.59
2023-04-18T03:24:18.282Z,4.55
2023-04-18T03:26:48.014Z,4.52
2023-04-18T03:29:16.351Z,4.54
2023-04-18T03:31:45.302Z,4.60
2023-04-18T03:34:13.019Z,4.68
2023-04-18T03:36:40.927Z,4.77
2023-04-18T03:39:08.946Z,4.84
2023-04-18T03:41:36.413Z,4.88
2023-04-18T03:44:04.456Z,4.96
2023-04-18T03:46:34.322Z,5.04
2023-04-18T03:49:01.964Z,5.09
2023-04-18T03:51:41.188Z,5.07
2023-04-18T03:54:08.706Z,5.13
2023-04-18T03:56:36.571Z,5.18
2023-04-18T03:59:04.260Z,5.27
2023-04-18T04:01:32.039Z,5.35
2023-04-18T04:04:01.218Z,5.42
2023-04-18T04:06:28.881Z,5.53
2023-04-18T04:08:56.362Z,5.62
2023-04-18T04:11:25.694Z,5.66
2023-04-18T04:13:53.222Z,5.69
2023-04-18T04:16:23.433Z,5.68
2023-04-18T04:18:51.600Z,5.54
2023-04-18T04:21:21.255Z,5.66
2023-04-18T04:23:53.328Z,5.75
2023-04-18T04:26:30.162Z,5.88
2023-04-18T04:29:03.158Z,6.05
2023-04-18T04:31:31.772Z,6.18
2023-04-18T04:33:59.398Z,6.30
2023-04-18T04:36:27.191Z,6.51
2023-04-18T04:38:55.389Z,6.60
2023-04-18T04:41:29.761Z,6.78
2023-04-18T04:43:59.076Z,6.99
2023-04-18T04:46:30.107Z,7.03
2023-04-18T04:48:58.121Z,6.84
2023-04-18T04:51:27.405Z,6.55
2023-04-18T04:53:55.074Z,6.32
2023-04-18T04:56:23.860Z,6.20
2023-04-18T04:58:52.924Z,6.06
2023-04-18T05:01:26.139Z,6.02
2023-04-18T05:03:55.012Z,5.98
2023-04-18T05:06:23.462Z,6.05
2023-04-18T05:08:51.081Z,6.30
2023-04-18T05:11:18.876Z,6.49
2023-04-18T05:13:46.491Z,6.62
2023-04-18T05:16:14.075Z,6.85
2023-04-18T05:18:41.723Z,7.04
2023-04-18T05:21:09.145Z,7.22
2023-04-18T05:23:36.689Z,7.39
2023-04-18T05:26:05.334Z,7.47
2023-04-18T05:28:32.885Z,7.47
2023-04-18T05:31:02.957Z,7.51
2023-04-18T05:33:31.637Z,7.39
2023-04-18T05:35:59.500Z,7.30
2023-04-18T05:38:26.969Z,7.40
2023-04-18T05:40:55.234Z,7.74
2023-04-18T05:43:23.044Z,7.96
2023-04-18T05:45:51.946Z,8.03
2023-04-18T05:48:19.519Z,8.23
2023-04-18T05:50:46.933Z,8.43
2023-04-18T05:53:15.260Z,8.64
2023-04-18T05:55:42.950Z,8.69
2023-04-18T05:58:10.415Z,8.69
2023-04-18T06:00:37.861Z,8.86
2023-04-18T06:03:06.274Z,8.98
2023-04-18T06:05:35.014Z,9.11
2023-04-18T06:08:03.097Z,9.20
2023-04-18T06:10:30.641Z,9.41
2023-04-18T06:12:58.210Z,9.30
2023-04-18T06:15:25.607Z,9.54
2023-04-18T06:17:53.395Z,9.51
2023-04-18T06:20:22.650Z,9.49
2023-04-18T06:22:50.036Z,9.34
2023-04-18T06:25:17.666Z,9.58
2023-04-18T06:27:45.192Z,9.32
2023-04-18T06:30:13.696Z,9.59
2023-04-18T06:32:41.390Z,9.56
2023-04-18T06:35:09.333Z,9.63
2023-04-18T06:37:36.899Z,9.48
2023-04-18T06:40:05.235Z,9.65
2023-04-18T06:42:32.821Z,9.74
2023-04-18T06:45:00.443Z,9.89
2023-04-18T06:47:28.408Z,10.02
2023-04-18T06:49:55.903Z,10.15
2023-04-18T06:52:23.565Z,10.30
2023-04-18T06:54:51.059Z,10.43
2023-04-18T06:57:18.647Z,10.58
2023-04-18T06:59:46.339Z,10.72
2023-04-18T07:02:14.438Z,10.54
2023-04-18T07:04:41.988Z,10.56
2023-04-18T07:07:09.488Z,10.61
2023-04-18T07:09:36.910Z,10.58
2023-04-18T07:12:04.805Z,10.55
2023-04-18T07:14:34.114Z,10.31
2023-04-18T07:17:01.928Z,10.42
2023-04-18T07:19:29.469Z,10.33
2023-04-18T07:21:56.967Z,10.40
2023-04-18T07:24:24.739Z,10.52
2023-04-18T07:26:54.485Z,10.37
2023-04-18T07:29:22.660Z,10.43
2023-04-18T07:31:50.850Z,10.48
2023-04-18T07:34:18.435Z,10.43
2023-04-18T07:36:45.947Z,10.43
2023-04-18T07:39:13.664Z,10.37
2023-04-18T07:41:41.196Z,10.48
2023-04-18T07:44:08.729Z,10.52
2023-04-18T07:46:36.389Z,10.55
2023-04-18T07:49:04.197Z,10.56
2023-04-18T07:51:31.961Z,10.32
2023-04-18T07:53:59.574Z,10.18
2023-04-18T07:56:27.740Z,10.29
2023-04-18T07:58:55.282Z,10.40
2023-04-18T08:01:24.279Z,10.47
2023-04-18T08:03:53.659Z,10.57
2023-04-18T08:06:21.345Z,10.73
2023-04-18T08:08:48.836Z,10.77
2023-04-18T08:11:16.353Z,10.83
2023-04-18T08:13:43.731Z,10.80
2023-04-18T08:16:11.297Z,11.06
2023-04-18T08:18:38.902Z,11.33
2023-04-18T08:21:06.621Z,11.47
2023-04-18T08:23:34.291Z,11.46
2023-04-18T08:26:01.956Z,11.48
2023-04-18T08:28:29.575Z,11.60
2023-04-18T08:30:57.089Z,11.44
2023-04-18T08:33:24.805Z,11.29
2023-04-18T08:35:52.400Z,11.39
2023-04-18T08:38:20.202Z,11.37
2023-04-18T08:40:47.714Z,11.38
2023-04-18T08:43:15.446Z,11.64
2023-04-18T08:45:44.818Z,11.66
2023-04-18T08:48:17.115Z,11.95
2023-04-18T08:50:44.996Z,11.77
2023-04-18T08:53:12.933Z,12.00
2023-04-18T08:55:41.592Z,12.13
2023-04-18T08:58:11.880Z,12.14
2023-04-18T09:00:39.453Z,12.13
2023-04-18T09:03:07.200Z,11.71
2023-04-18T09:05:35.126Z,11.61
2023-04-18T09:08:21.704Z,11.71
2023-04-18T09:10:49.911Z,11.75
2023-04-18T09:13:39.006Z,11.74
2023-04-18T09:16:06.802Z,11.64
2023-04-18T09:18:34.736Z,11.32
2023-04-18T09:21:20.392Z,11.24
2023-04-18T09:23:49.867Z,11.15
2023-04-18T09:26:34.411Z,11.01
2023-04-18T09:29:02.774Z,10.87
2023-04-18T09:31:30.466Z,10.92
2023-04-18T09:33:58.167Z,10.88
2023-04-18T09:36:27.528Z,10.84
2023-04-18T09:38:56.881Z,10.69
2023-04-18T09:41:24.750Z,10.54
2023-04-18T09:44:15.502Z,10.50
2023-04-18T09:46:47.188Z,10.60
2023-04-18T09:49:17.122Z,10.69
2023-04-18T09:51:45.746Z,10.63
2023-04-18T09:54:16.344Z,10.65
2023-04-18T09:56:45.582Z,10.66
2023-04-18T09:59:21.108Z,10.67
2023-04-18T10:01:50.213Z,10.57
2023-04-18T10:04:18.741Z,10.50
2023-04-18T10:06:46.804Z,10.33
2023-04-18T10:09:15.781Z,10.39
2023-04-18T10:11:44.080Z,10.44
2023-04-18T10:14:15.208Z,10.44
2023-04-18T10:16:48.503Z,10.38
2023-04-18T10:19:29.020Z,10.45
2023-04-18T10:21:59.039Z,10.43
2023-04-18T10:24:45.470Z,10.40
2023-04-18T10:27:13.302Z,10.35
2023-04-18T10:29:53.112Z,10.36
2023-04-18T10:32:24.044Z,10.39
2023-04-18T10:34:53.921Z,10.53
2023-04-18T10:37:21.248Z,10.64
2023-04-18T10:40:02.419Z,10.76
2023-04-18T10:42:48.015Z,10.93
2023-04-18T10:45:24.205Z,10.85
2023-04-18T10:48:34.258Z,10.92
2023-04-18T10:51:20.350Z,11.36
2023-04-18T10:53:59.899Z,11.66
2023-04-18T10:56:28.649Z,11.75
2023-04-18T10:59:00.871Z,12.03
2023-04-18T11:01:33.004Z,11.98
2023-04-18T11:04:01.089Z,11.82
2023-04-18T11:06:30.757Z,11.89
2023-04-18T11:09:13.929Z,11.84
2023-04-18T11:11:43.643Z,11.77
2023-04-18T11:14:11.375Z,11.57
2023-04-18T11:16:39.923Z,11.43
2023-04-18T11:19:26.085Z,11.36
2023-04-18T11:22:00.755Z,11.34
2023-04-18T11:24:28.943Z,11.33
2023-04-18T11:26:56.529Z,11.42
2023-04-18T11:29:24.136Z,11.43
2023-04-18T11:31:58.497Z,11.57
2023-04-18T11:34:30.922Z,11.63
2023-04-18T11:36:59.206Z,11.38
2023-04-18T11:39:26.855Z,11.56
2023-04-18T11:41:56.417Z,11.61
2023-04-18T11:44:25.073Z,11.34
2023-04-18T11:46:53.532Z,11.33
2023-04-18T11:49:32.315Z,11.26
2023-04-18T11:52:00.849Z,11.10
2023-04-18T11:54:43.451Z,10.75
2023-04-18T11:57:26.780Z,10.57
2023-04-18T12:00:00.285Z,10.62
2023-04-18T12:02:41.330Z,10.65
2023-04-18T12:05:10.249Z,10.70
2023-04-18T12:07:41.105Z,10.75
2023-04-18T12:10:29.441Z,10.85
2023-04-18T12:12:58.713Z,10.89
2023-04-18T12:15:28.877Z,10.94
2023-04-18T12:18:02.205Z,11.06
2023-04-18T12:20:51.827Z,11.16
2023-04-18T12:23:33.350Z,10.91
2023-04-18T12:26:06.736Z,10.92
2023-04-18T12:28:35.269Z,10.97
2023-04-18T12:31:06.674Z,11.01
2023-04-18T12:33:36.153Z,11.07
2023-04-18T12:36:08.119Z,11.04
2023-04-18T12:38:35.830Z,11.05
2023-04-18T12:41:03.518Z,11.01
2023-04-18T12:43:31.049Z,10.91
2023-04-18T12:45:59.156Z,10.86
2023-04-18T12:48:26.607Z,10.81
2023-04-18T12:50:54.626Z,10.89
2023-04-18T12:53:22.223Z,10.99
2023-04-18T12:55:49.670Z,11.05
2023-04-18T12:58:18.191Z,11.14
2023-04-18T13:00:45.976Z,11.14
2023-04-18T13:03:13.756Z,11.17
2023-04-18T13:05:41.650Z,11.25
2023-04-18T13:08:16.876Z,11.33
2023-04-18T13:10:46.985Z,11.31
2023-04-18T13:13:14.560Z,11.19
2023-04-18T13:15:42.147Z,11.23
2023-04-18T13:18:09.756Z,11.28
2023-04-18T13:20:37.258Z,11.33
2023-04-18T13:23:05.051Z,11.44
2023-04-18T13:25:32.804Z,11.53
2023-04-18T13:28:00.433Z,11.57
2023-04-18T13:30:27.966Z,11.52
2023-04-18T13:32:56.203Z,11.55
2023-04-18T13:35:23.817Z,11.52
2023-04-18T13:37:51.566Z,11.37
2023-04-18T13:40:19.121Z,11.38
2023-04-18T13:42:46.563Z,11.36
2023-04-18T13:45:14.045Z,11.28
2023-04-18T13:47:41.507Z,11.28
2023-04-18T13:50:09.559Z,11.21
2023-04-18T13:52:37.010Z,11.11
2023-04-18T13:55:05.242Z,11.03
2023-04-18T13:57:33.118Z,10.94
2023-04-18T14:00:00.666Z,10.86
2023-04-18T14:02:28.433Z,10.94
2023-04-18T14:04:57.626Z,11.01
2023-04-18T14:07:25.166Z,11.01
2023-04-18T14:09:53.887Z,10.94
2023-04-18T14:12:21.940Z,10.83
2023-04-18T14:14:49.397Z,10.62
2023-04-18T14:17:16.877Z,10.59
2023-04-18T14:19:44.456Z,10.66
2023-04-18T14:22:11.991Z,10.73
2023-04-18T14:24:39.578Z,10.77
2023-04-18T14:27:07.138Z,10.85
2023-04-18T14:29:34.983Z,10.96
2023-04-18T14:32:02.659Z,10.92
2023-04-18T14:34:31.213Z,10.92
2023-04-18T14:37:01.085Z,10.91
2023-04-18T14:39:28.592Z,10.92
2023-04-18T14:41:57.160Z,10.93
2023-04-18T14:44:25.068Z,10.94
2023-04-18T14:46:52.726Z,10.94
2023-04-18T14:49:20.453Z,10.93
2023-04-18T14:51:47.939Z,10.89
2023-04-18T14:54:15.734Z,10.81
2023-04-18T14:56:43.091Z,10.70
2023-04-18T14:59:14.853Z,10.60
2023-04-18T15:01:44.268Z,10.57
2023-04-18T15:04:12.215Z,10.46
2023-04-18T15:06:40.153Z,10.32
2023-04-18T15:09:07.665Z,10.23
2023-04-18T15:11:35.165Z,10.21
2023-04-18T15:14:02.770Z,10.16
2023-04-18T15:16:31.654Z,10.13
2023-04-18T15:18:59.882Z,10.07
2023-04-18T15:21:27.351Z,10.02
2023-04-18T15:23:54.954Z,9.99
2023-04-18T15:26:23.708Z,9.98
2023-04-18T15:28:54.030Z,9.95
2023-04-18T15:31:21.671Z,9.91
2023-04-18T15:33:49.375Z,9.87
2023-04-18T15:36:16.753Z,9.84
2023-04-18T15:38:44.264Z,9.81
2023-04-18T15:41:11.938Z,9.79
2023-04-18T15:43:41.428Z,9.75
2023-04-18T15:46:09.309Z,9.70
2023-04-18T15:48:37.002Z,9.67
2023-04-18T15:51:04.807Z,9.66
2023-04-18T15:53:32.494Z,9.63
2023-04-18T15:56:01.391Z,9.55
2023-04-18T15:58:29.780Z,9.49
2023-04-18T16:00:58.375Z,9.43
2023-04-18T16:03:26.620Z,9.38
2023-04-18T16:05:54.830Z,9.32
2023-04-18T16:08:22.882Z,9.29
2023-04-18T16:10:52.696Z,9.28
2023-04-18T16:13:20.531Z,9.29
2023-04-18T16:15:48.421Z,9.29
2023-04-18T16:18:16.078Z,9.27
2023-04-18T16:20:43.639Z,9.28
2023-04-18T16:23:10.985Z,9.28
2023-04-18T16:25:38.542Z,9.29
2023-04-18T16:28:06.006Z,9.26
2023-04-18T16:30:33.612Z,9.24
2023-04-18T16:33:01.404Z,9.23
2023-04-18T16:35:29.135Z,9.21
2023-04-18T16:37:56.886Z,9.17
2023-04-18T16:40:29.845Z,9.16
2023-04-18T16:42:58.146Z,9.19
2023-04-18T16:45:25.761Z,9.16
2023-04-18T16:47:53.585Z,9.15
2023-04-18T16:50:22.252Z,9.12
2023-04-18T16:52:50.007Z,9.12
2023-04-18T16:55:17.620Z,9.15
2023-04-18T16:57:45.268Z,9.17
2023-04-18T17:00:14.131Z,9.16
2023-04-18T17:02:42.847Z,9.16
2023-04-18T17:05:10.685Z,9.14
2023-04-18T17:07:38.169Z,9.13
2023-04-18T17:10:07.767Z,9.12
2023-04-18T17:12:37.059Z,9.10
2023-04-18T17:15:05.362Z,9.11
2023-04-18T17:17:33.106Z,9.04
2023-04-18T17:20:00.947Z,9.07
2023-04-18T17:22:28.971Z,9.05
2023-04-18T17:24:56.410Z,9.03
2023-04-18T17:27:24.041Z,9.01
2023-04-18T17:29:51.652Z,8.96
2023-04-18T17:32:19.176Z,8.96
2023-04-18T17:34:47.120Z,8.98
2023-04-18T17:37:16.432Z,9.00
2023-04-18T17:39:44.200Z,9.00
2023-04-18T17:42:11.803Z,9.02
2023-04-18T17:44:39.654Z,9.02
2023-04-18T17:47:07.608Z,9.03
2023-04-18T17:49:35.539Z,8.96
2023-04-18T17:52:03.955Z,8.95
2023-04-18T17:54:32.427Z,8.95
2023-04-18T17:57:01.360Z,8.94
2023-04-18T17:59:29.224Z,8.96
2023-04-18T18:01:57.120Z,8.90
2023-04-18T18:04:26.689Z,8.90
2023-04-18T18:06:55.766Z,8.90
2023-04-18T18:09:23.420Z,8.87
2023-04-18T18:11:50.993Z,8.88
2023-04-18T18:14:19.697Z,8.87
2023-04-18T18:16:47.432Z,8.88
2023-04-18T18:19:16.103Z,8.90
2023-04-18T18:21:43.942Z,8.92
2023-04-18T18:24:11.461Z,8.94
2023-04-18T18:26:39.309Z,8.98
2023-04-18T18:29:10.739Z,8.93
2023-04-18T18:31:38.720Z,8.94
2023-04-18T18:34:06.280Z,8.95
2023-04-18T18:36:34.025Z,8.96
2023-04-18T18:39:01.688Z,9.00
2023-04-18T18:41:29.455Z,8.98
2023-04-18T18:43:57.295Z,8.97
2023-04-18T18:46:26.654Z,8.94
2023-04-18T18:48:54.251Z,8.94
2023-04-18T18:51:23.252Z,8.94
2023-04-18T18:53:50.904Z,8.93
2023-04-18T18:56:18.739Z,8.86
2023-04-18T18:58:46.497Z,8.82
2023-04-18T19:01:13.960Z,8.83
2023-04-18T19:03:41.644Z,8.85
2023-04-18T19:06:09.453Z,8.91
2023-04-18T19:08:36.913Z,8.94
2023-04-18T19:11:04.482Z,8.92
2023-04-18T19:13:32.087Z,8.77
2023-04-18T19:15:59.651Z,8.79
2023-04-18T19:18:27.323Z,8.74
2023-04-18T19:20:54.867Z,8.78
2023-04-18T19:23:24.589Z,8.75
2023-04-18T19:25:52.173Z,8.71
2023-04-18T19:28:21.190Z,8.77
2023-04-18T19:30:49.153Z,8.74
2023-04-18T19:33:17.042Z,8.67
2023-04-18T19:35:44.600Z,8.70
2023-04-18T19:38:12.110Z,8.74
2023-04-18T19:40:39.913Z,8.78
2023-04-18T19:43:07.698Z,8.82
2023-04-18T19:45:35.699Z,8.85
2023-04-18T19:48:03.671Z,8.80
2023-04-18T19:50:31.507Z,8.82
2023-04-18T19:52:59.207Z,8.84
2023-04-18T19:55:26.796Z,8.88
2023-04-18T19:57:58.387Z,8.90
2023-04-18T20:00:26.430Z,8.87
2023-04-18T20:02:54.297Z,8.87
2023-04-18T20:05:22.101Z,8.90
2023-04-18T20:07:50.045Z,8.93
2023-04-18T20:10:23.092Z,8.95
2023-04-18T20:12:50.683Z,8.97
2023-04-18T20:15:18.178Z,8.95
2023-04-18T20:17:45.791Z,8.99
2023-04-18T20:20:13.419Z,8.99
2023-04-18T20:22:42.555Z,8.98
2023-04-18T20:25:10.272Z,8.95
2023-04-18T20:27:37.786Z,8.94
2023-04-18T20:30:06.428Z,8.89
2023-04-18T20:32:34.271Z,8.92
2023-04-18T20:35:02.396Z,8.81
2023-04-18T20:37:30.006Z,8.79
2023-04-18T20:39:58.236Z,8.71
2023-04-18T20:42:26.775Z,8.76
2023-04-18T20:44:54.427Z,8.83
2023-04-18T20:47:22.006Z,8.87
2023-04-18T20:49:49.619Z,8.83
2023-04-18T20:52:17.231Z,8.88
2023-04-18T20:54:44.654Z,8.92
2023-04-18T20:57:12.280Z,8.96
2023-04-18T20:59:39.995Z,8.97
2023-04-18T21:02:08.030Z,8.97
2023-04-18T21:04:35.766Z,8.93
2023-04-18T21:07:03.514Z,8.95
2023-04-18T21:09:35.850Z,8.97
2023-04-18T21:12:05.068Z,9.04
2023-04-18T21:14:32.879Z,9.07
2023-04-18T21:17:01.236Z,9.07
2023-04-18T21:19:28.878Z,9.05
2023-04-18T21:21:56.522Z,9.05
2023-04-18T21:24:24.094Z,9.08
2023-04-18T21:26:51.718Z,9.05
2023-04-18T21:29:21.098Z,9.06
2023-04-18T21:31:49.774Z,9.07
2023-04-18T21:34:17.569Z,9.10
2023-04-18T21:36:45.317Z,9.10
2023-04-18T21:39:12.719Z,9.08
2023-04-18T21:41:40.973Z,9.05
2023-04-18T21:44:08.417Z,9.00
2023-04-18T21:46:36.342Z,8.98
2023-04-18T21:49:03.700Z,8.96
2023-04-18T21:51:31.590Z,8.95
2023-04-18T21:53:59.273Z,8.93
2023-04-18T21:56:26.862Z,8.94
2023-04-18T21:58:54.406Z,8.94
2023-04-18T22:01:21.888Z,8.93
2023-04-18T22:03:49.823Z,8.90
2023-04-18T22:06:17.531Z,8.91
2023-04-18T22:08:45.027Z,8.91
2023-04-18T22:11:13.058Z,8.91
2023-04-18T22:13:44.270Z,8.93
2023-04-18T22:16:11.929Z,8.96
2023-04-18T22:18:39.722Z,8.96
2023-04-18T22:21:09.524Z,8.97
2023-04-18T22:23:37.041Z,8.96
2023-04-18T22:26:04.751Z,8.92
2023-04-18T22:28:33.567Z,8.92
2023-04-18T22:31:01.066Z,8.90
2023-04-18T22:33:28.868Z,8.89
2023-04-18T22:35:56.496Z,8.91
2023-04-18T22:38:25.223Z,8.91
2023-04-18T22:40:52.817Z,8.90
2023-04-18T22:43:23.103Z,8.91
2023-04-18T22:45:51.143Z,8.88
2023-04-18T22:48:18.869Z,8.85
2023-04-18T22:50:46.866Z,8.86
2023-04-18T22:53:15.435Z,8.81
2023-04-18T22:55:44.399Z,8.84
2023-04-18T22:58:12.231Z,8.80
2023-04-18T23:00:43.424Z,8.82
2023-04-18T23:03:15.696Z,8.80
2023-04-18T23:05:43.440Z,8.81
2023-04-18T23:08:11.522Z,8.77
2023-04-18T23:10:39.045Z,8.74
2023-04-18T23:13:06.652Z,8.70
2023-04-18T23:15:34.134Z,8.75
2023-04-18T23:18:01.793Z,8.67
2023-04-18T23:20:29.283Z,8.69
2023-04-18T23:22:56.811Z,8.66
2023-04-18T23:25:24.420Z,8.70
2023-04-18T23:27:51.985Z,8.68
2023-04-18T23:30:19.456Z,8.70
2023-04-18T23:32:47.015Z,8.65
2023-04-18T23:35:14.569Z,8.60
2023-04-18T23:37:42.090Z,8.63
2023-04-18T23:40:10.592Z,8.56
2023-04-18T23:42:38.082Z,8.61
2023-04-18T23:45:06.347Z,8.61
2023-04-18T23:47:34.135Z,8.60
2023-04-18T23:50:01.918Z,8.61
2023-04-18T23:52:29.441Z,8.55
2023-04-18T23:55:00.758Z,8.52
2023-04-18T23:57:28.396Z,8.53
2023-04-18T23:59:55.958Z,8.49
